sensor_id;sensor_type;location;lat;lon;timestamp;temperature;humidity
39019;DHT22;24786;51.984;5.872;2023-12-20T00:01:35;6.40;99.90
39019;DHT22;24786;51.984;5.872;2023-12-20T00:04:06;6.30;99.90
39019;DHT22;24786;51.984;5.872;2023-12-20T00:06:34;6.30;99.90
39019;DHT22;24786;51.984;5.872;2023-12-20T00:09:00;6.30;99.90
39019;DHT22;24786;51.984;5.872;2023-12-20T00:11:25;6.30;99.90
39019;DHT22;24786;51.984;5.872;2023-12-20T00:13:51;6.30;99.90
39019;DHT22;24786;51.984;5.872;2023-12-20T00:16:16;6.30;99.90
39019;DHT22;24786;51.984;5.872;2023-12-20T00:18:42;6.30;99.90
39019;DHT22;24786;51.984;5.872;2023-12-20T00:21:07;6.20;99.90
39019;DHT22;24786;51.984;5.872;2023-12-20T00:23:33;6.20;99.90
39019;DHT22;24786;51.984;5.872;2023-12-20T00:25:58;6.20;99.90
39019;DHT22;24786;51.984;5.872;2023-12-20T00:28:24;6.30;99.90
39019;DHT22;24786;51.984;5.872;2023-12-20T00:30:49;6.30;99.90
39019;DHT22;24786;51.984;5.872;2023-12-20T00:33:15;6.30;99.90
39019;DHT22;24786;51.984;5.872;2023-12-20T00:35:40;6.30;99.90
39019;DHT22;24786;51.984;5.872;2023-12-20T00:38:06;6.30;99.90
39019;DHT22;24786;51.984;5.872;2023-12-20T00:40:34;6.30;99.90
39019;DHT22;24786;51.984;5.872;2023-12-20T00:43:06;6.30;99.90
39019;DHT22;24786;51.984;5.872;2023-12-20T00:45:39;6.20;99.90
39019;DHT22;24786;51.984;5.872;2023-12-20T00:48:10;6.20;99.90
39019;DHT22;24786;51.984;5.872;2023-12-20T00:50:42;6.20;99.90
39019;DHT22;24786;51.984;5.872;2023-12-20T00:53:07;6.20;99.90
39019;DHT22;24786;51.984;5.872;2023-12-20T00:55:38;6.20;99.90
39019;DHT22;24786;51.984;5.872;2023-12-20T00:58:04;6.20;99.90
39019;DHT22;24786;51.984;5.872;2023-12-20T01:00:29;6.10;99.90
39019;DHT22;24786;51.984;5.872;2023-12-20T01:02:55;6.10;99.90
39019;DHT22;24786;51.984;5.872;2023-12-20T01:05:20;6.10;99.90
39019;DHT22;24786;51.984;5.872;2023-12-20T01:07:48;6.10;99.90
39019;DHT22;24786;51.984;5.872;2023-12-20T01:10:14;6.10;99.90
39019;DHT22;24786;51.984;5.872;2023-12-20T01:12:43;6.00;99.90
39019;DHT22;24786;51.984;5.872;2023-12-20T01:15:11;6.10;99.90
39019;DHT22;24786;51.984;5.872;2023-12-20T01:17:40;6.00;99.90
39019;DHT22;24786;51.984;5.872;2023-12-20T01:22:50;6.00;99.90
39019;DHT22;24786;51.984;5.872;2023-12-20T01:25:15;6.00;99.90
39019;DHT22;24786;51.984;5.872;2023-12-20T01:27:40;6.00;99.90
39019;DHT22;24786;51.984;5.872;2023-12-20T01:30:06;6.00;99.90
39019;DHT22;24786;51.984;5.872;2023-12-20T01:32:32;5.90;99.90
39019;DHT22;24786;51.984;5.872;2023-12-20T01:34:57;5.90;99.90
39019;DHT22;24786;51.984;5.872;2023-12-20T01:37:23;5.90;99.90
39019;DHT22;24786;51.984;5.872;2023-12-20T01:39:50;5.90;99.90
39019;DHT22;24786;51.984;5.872;2023-12-20T01:42:16;5.90;99.90
39019;DHT22;24786;51.984;5.872;2023-12-20T01:44:43;5.90;99.90
39019;DHT22;24786;51.984;5.872;2023-12-20T01:47:09;5.90;99.90
39019;DHT22;24786;51.984;5.872;2023-12-20T01:49:35;5.80;99.90
39019;DHT22;24786;51.984;5.872;2023-12-20T01:52:03;5.80;99.90
39019;DHT22;24786;51.984;5.872;2023-12-20T01:54:28;5.90;99.90
39019;DHT22;24786;51.984;5.872;2023-12-20T01:56:57;5.90;99.90
39019;DHT22;24786;51.984;5.872;2023-12-20T01:59:22;5.90;99.90
39019;DHT22;24786;51.984;5.872;2023-12-20T02:01:51;5.80;99.90
39019;DHT22;24786;51.984;5.872;2023-12-20T02:04:16;5.90;99.90
39019;DHT22;24786;51.984;5.872;2023-12-20T02:06:45;5.90;99.90
39019;DHT22;24786;51.984;5.872;2023-12-20T02:09:11;5.90;99.90
39019;DHT22;24786;51.984;5.872;2023-12-20T02:11:37;5.90;99.90
39019;DHT22;24786;51.984;5.872;2023-12-20T02:14:03;5.90;99.90
39019;DHT22;24786;51.984;5.872;2023-12-20T02:16:28;5.90;99.90
39019;DHT22;24786;51.984;5.872;2023-12-20T02:18:57;5.90;99.90
39019;DHT22;24786;51.984;5.872;2023-12-20T02:21:31;5.90;99.90
39019;DHT22;24786;51.984;5.872;2023-12-20T02:23:57;5.90;99.90
39019;DHT22;24786;51.984;5.872;2023-12-20T02:26:22;5.80;99.90
39019;DHT22;24786;51.984;5.872;2023-12-20T02:28:47;5.90;99.90
39019;DHT22;24786;51.984;5.872;2023-12-20T02:31:13;5.80;99.90
39019;DHT22;24786;51.984;5.872;2023-12-20T02:33:38;5.90;99.90
39019;DHT22;24786;51.984;5.872;2023-12-20T02:36:06;5.90;99.90
39019;DHT22;24786;51.984;5.872;2023-12-20T02:38:31;5.90;99.90
39019;DHT22;24786;51.984;5.872;2023-12-20T02:40:57;6.00;99.90
39019;DHT22;24786;51.984;5.872;2023-12-20T02:43:22;6.00;99.90
39019;DHT22;24786;51.984;5.872;2023-12-20T02:45:48;6.00;99.90
39019;DHT22;24786;51.984;5.872;2023-12-20T02:48:13;6.00;99.90
39019;DHT22;24786;51.984;5.872;2023-12-20T02:50:39;6.00;99.90
39019;DHT22;24786;51.984;5.872;2023-12-20T02:53:04;6.00;99.90
39019;DHT22;24786;51.984;5.872;2023-12-20T02:55:30;6.10;99.90
39019;DHT22;24786;51.984;5.872;2023-12-20T02:57:58;6.10;99.90
39019;DHT22;24786;51.984;5.872;2023-12-20T03:00:23;6.10;99.90
39019;DHT22;24786;51.984;5.872;2023-12-20T03:02:49;6.10;99.90
39019;DHT22;24786;51.984;5.872;2023-12-20T03:05:24;6.10;99.90
39019;DHT22;24786;51.984;5.872;2023-12-20T03:07:49;6.20;99.90
39019;DHT22;24786;51.984;5.872;2023-12-20T03:10:15;6.20;99.90
39019;DHT22;24786;51.984;5.872;2023-12-20T03:12:40;6.20;99.90
39019;DHT22;24786;51.984;5.872;2023-12-20T03:15:06;6.20;99.90
39019;DHT22;24786;51.984;5.872;2023-12-20T03:17:31;6.10;99.90
39019;DHT22;24786;51.984;5.872;2023-12-20T03:19:57;6.10;99.90
39019;DHT22;24786;51.984;5.872;2023-12-20T03:22:22;6.10;99.90
39019;DHT22;24786;51.984;5.872;2023-12-20T03:24:48;6.10;99.90
39019;DHT22;24786;51.984;5.872;2023-12-20T03:27:13;6.10;99.90
39019;DHT22;24786;51.984;5.872;2023-12-20T03:29:39;6.10;99.90
39019;DHT22;24786;51.984;5.872;2023-12-20T03:32:07;6.10;99.90
39019;DHT22;24786;51.984;5.872;2023-12-20T03:34:35;6.10;99.90
39019;DHT22;24786;51.984;5.872;2023-12-20T03:37:01;6.00;99.90
39019;DHT22;24786;51.984;5.872;2023-12-20T03:39:26;6.10;99.90
39019;DHT22;24786;51.984;5.872;2023-12-20T03:41:52;6.00;99.90
39019;DHT22;24786;51.984;5.872;2023-12-20T03:44:17;6.00;99.90
39019;DHT22;24786;51.984;5.872;2023-12-20T03:46:43;6.00;99.90
39019;DHT22;24786;51.984;5.872;2023-12-20T03:49:08;6.00;99.90
39019;DHT22;24786;51.984;5.872;2023-12-20T03:51:37;6.00;99.90
39019;DHT22;24786;51.984;5.872;2023-12-20T03:54:02;6.00;99.90
39019;DHT22;24786;51.984;5.872;2023-12-20T03:56:28;6.00;99.90
39019;DHT22;24786;51.984;5.872;2023-12-20T03:58:53;6.00;99.90
39019;DHT22;24786;51.984;5.872;2023-12-20T04:01:19;6.00;99.90
39019;DHT22;24786;51.984;5.872;2023-12-20T04:03:44;6.00;99.90
39019;DHT22;24786;51.984;5.872;2023-12-20T04:06:10;6.00;99.90
39019;DHT22;24786;51.984;5.872;2023-12-20T04:08:35;6.00;99.90
39019;DHT22;24786;51.984;5.872;2023-12-20T04:11:01;6.00;99.90
39019;DHT22;24786;51.984;5.872;2023-12-20T04:13:29;6.10;99.90
39019;DHT22;24786;51.984;5.872;2023-12-20T04:15:55;6.10;99.90
39019;DHT22;24786;51.984;5.872;2023-12-20T04:18:20;6.10;99.90
39019;DHT22;24786;51.984;5.872;2023-12-20T04:20:46;6.10;99.90
39019;DHT22;24786;51.984;5.872;2023-12-20T04:23:11;6.20;99.90
39019;DHT22;24786;51.984;5.872;2023-12-20T04:25:39;6.20;99.90
39019;DHT22;24786;51.984;5.872;2023-12-20T04:28:05;6.20;99.90
39019;DHT22;24786;51.984;5.872;2023-12-20T04:30:30;6.20;99.90
39019;DHT22;24786;51.984;5.872;2023-12-20T04:32:56;6.20;99.90
39019;DHT22;24786;51.984;5.872;2023-12-20T04:35:22;6.20;99.90
39019;DHT22;24786;51.984;5.872;2023-12-20T04:37:48;6.20;99.90
39019;DHT22;24786;51.984;5.872;2023-12-20T04:40:14;6.30;99.90
39019;DHT22;24786;51.984;5.872;2023-12-20T04:42:40;6.30;99.90
39019;DHT22;24786;51.984;5.872;2023-12-20T04:45:05;6.30;99.90
39019;DHT22;24786;51.984;5.872;2023-12-20T04:47:31;6.30;99.90
39019;DHT22;24786;51.984;5.872;2023-12-20T04:49:59;6.30;99.90
39019;DHT22;24786;51.984;5.872;2023-12-20T04:52:25;6.30;99.90
39019;DHT22;24786;51.984;5.872;2023-12-20T04:54:51;6.30;99.90
39019;DHT22;24786;51.984;5.872;2023-12-20T04:57:16;6.30;99.90
39019;DHT22;24786;51.984;5.872;2023-12-20T04:59:42;6.30;99.90
39019;DHT22;24786;51.984;5.872;2023-12-20T05:02:07;6.40;99.90
39019;DHT22;24786;51.984;5.872;2023-12-20T05:04:33;6.40;99.90
39019;DHT22;24786;51.984;5.872;2023-12-20T05:51:28;6.80;99.90
39019;DHT22;24786;51.984;5.872;2023-12-20T05:53:53;6.80;99.90
39019;DHT22;24786;51.984;5.872;2023-12-20T05:56:19;6.80;99.90
39019;DHT22;24786;51.984;5.872;2023-12-20T05:58:44;6.80;99.90
39019;DHT22;24786;51.984;5.872;2023-12-20T06:01:16;6.80;99.90
39019;DHT22;24786;51.984;5.872;2023-12-20T06:03:44;6.80;99.90
39019;DHT22;24786;51.984;5.872;2023-12-20T06:06:13;6.80;99.90
39019;DHT22;24786;51.984;5.872;2023-12-20T06:08:39;6.80;99.90
39019;DHT22;24786;51.984;5.872;2023-12-20T06:11:04;6.90;99.90
39019;DHT22;24786;51.984;5.872;2023-12-20T06:13:30;6.90;99.90
39019;DHT22;24786;51.984;5.872;2023-12-20T06:15:56;6.90;99.90
39019;DHT22;24786;51.984;5.872;2023-12-20T06:18:22;6.90;99.90
39019;DHT22;24786;51.984;5.872;2023-12-20T06:20:47;6.90;99.90
39019;DHT22;24786;51.984;5.872;2023-12-20T06:23:13;6.90;99.90
39019;DHT22;24786;51.984;5.872;2023-12-20T06:25:41;6.90;99.90
39019;DHT22;24786;51.984;5.872;2023-12-20T06:28:06;6.90;99.90
39019;DHT22;24786;51.984;5.872;2023-12-20T06:30:32;7.00;99.90
39019;DHT22;24786;51.984;5.872;2023-12-20T06:32:58;6.90;99.90
39019;DHT22;24786;51.984;5.872;2023-12-20T06:35:23;7.00;99.90
39019;DHT22;24786;51.984;5.872;2023-12-20T06:37:49;7.00;99.90
39019;DHT22;24786;51.984;5.872;2023-12-20T06:40:14;7.00;99.90
39019;DHT22;24786;51.984;5.872;2023-12-20T06:42:41;6.90;99.90
39019;DHT22;24786;51.984;5.872;2023-12-20T06:45:06;7.00;99.90
39019;DHT22;24786;51.984;5.872;2023-12-20T06:47:32;7.00;99.90
39019;DHT22;24786;51.984;5.872;2023-12-20T06:50:00;7.00;99.90
39019;DHT22;24786;51.984;5.872;2023-12-20T06:52:26;7.00;99.90
39019;DHT22;24786;51.984;5.872;2023-12-20T06:54:52;7.00;99.90
39019;DHT22;24786;51.984;5.872;2023-12-20T06:57:17;7.00;99.90
39019;DHT22;24786;51.984;5.872;2023-12-20T06:59:45;7.00;99.90
39019;DHT22;24786;51.984;5.872;2023-12-20T07:02:11;7.00;99.90
39019;DHT22;24786;51.984;5.872;2023-12-20T07:04:39;7.00;99.90
39019;DHT22;24786;51.984;5.872;2023-12-20T07:07:05;7.10;99.90
39019;DHT22;24786;51.984;5.872;2023-12-20T07:09:31;7.10;99.90
39019;DHT22;24786;51.984;5.872;2023-12-20T07:11:56;7.10;99.90
39019;DHT22;24786;51.984;5.872;2023-12-20T07:14:22;7.10;99.90
39019;DHT22;24786;51.984;5.872;2023-12-20T07:16:47;7.00;99.90
39019;DHT22;24786;51.984;5.872;2023-12-20T07:19:12;7.00;99.90
39019;DHT22;24786;51.984;5.872;2023-12-20T07:21:38;7.10;99.90
39019;DHT22;24786;51.984;5.872;2023-12-20T07:24:03;7.00;99.90
39019;DHT22;24786;51.984;5.872;2023-12-20T07:26:29;7.10;99.90
39019;DHT22;24786;51.984;5.872;2023-12-20T07:28:54;7.10;99.90
39019;DHT22;24786;51.984;5.872;2023-12-20T07:31:20;7.00;99.90
39019;DHT22;24786;51.984;5.872;2023-12-20T07:33:45;7.10;99.90
39019;DHT22;24786;51.984;5.872;2023-12-20T07:36:11;7.10;99.90
39019;DHT22;24786;51.984;5.872;2023-12-20T07:38:37;7.10;99.90
39019;DHT22;24786;51.984;5.872;2023-12-20T07:41:02;7.10;99.90
39019;DHT22;24786;51.984;5.872;2023-12-20T07:43:28;7.10;99.90
39019;DHT22;24786;51.984;5.872;2023-12-20T07:45:53;7.10;99.90
39019;DHT22;24786;51.984;5.872;2023-12-20T07:48:19;7.10;99.90
39019;DHT22;24786;51.984;5.872;2023-12-20T07:50:44;7.10;99.90
39019;DHT22;24786;51.984;5.872;2023-12-20T07:53:10;7.10;99.90
39019;DHT22;24786;51.984;5.872;2023-12-20T07:55:35;7.10;99.90
39019;DHT22;24786;51.984;5.872;2023-12-20T07:58:04;7.20;99.90
39019;DHT22;24786;51.984;5.872;2023-12-20T08:00:30;7.30;99.90
39019;DHT22;24786;51.984;5.872;2023-12-20T08:02:55;7.20;99.90
39019;DHT22;24786;51.984;5.872;2023-12-20T08:05:21;7.20;99.90
39019;DHT22;24786;51.984;5.872;2023-12-20T08:07:46;7.20;99.90
39019;DHT22;24786;51.984;5.872;2023-12-20T08:10:12;7.20;99.90
39019;DHT22;24786;51.984;5.872;2023-12-20T08:12:38;7.20;99.90
39019;DHT22;24786;51.984;5.872;2023-12-20T08:15:05;7.20;99.90
39019;DHT22;24786;51.984;5.872;2023-12-20T08:17:30;7.30;99.90
39019;DHT22;24786;51.984;5.872;2023-12-20T08:19:56;7.30;99.90
39019;DHT22;24786;51.984;5.872;2023-12-20T08:22:21;7.30;99.90
39019;DHT22;24786;51.984;5.872;2023-12-20T08:24:47;7.30;99.90
39019;DHT22;24786;51.984;5.872;2023-12-20T08:27:13;7.30;99.90
39019;DHT22;24786;51.984;5.872;2023-12-20T08:29:38;7.30;99.90
39019;DHT22;24786;51.984;5.872;2023-12-20T08:32:04;7.30;99.90
39019;DHT22;24786;51.984;5.872;2023-12-20T08:34:29;7.40;99.90
39019;DHT22;24786;51.984;5.872;2023-12-20T08:36:55;7.40;99.90
39019;DHT22;24786;51.984;5.872;2023-12-20T08:39:25;7.30;99.90
39019;DHT22;24786;51.984;5.872;2023-12-20T08:41:50;7.40;99.90
39019;DHT22;24786;51.984;5.872;2023-12-20T08:44:16;7.40;99.90
39019;DHT22;24786;51.984;5.872;2023-12-20T08:46:41;7.40;99.90
39019;DHT22;24786;51.984;5.872;2023-12-20T08:49:06;7.40;99.90
39019;DHT22;24786;51.984;5.872;2023-12-20T08:51:34;7.40;99.90
39019;DHT22;24786;51.984;5.872;2023-12-20T08:53:59;7.40;99.90
39019;DHT22;24786;51.984;5.872;2023-12-20T08:56:24;7.40;99.90
39019;DHT22;24786;51.984;5.872;2023-12-20T08:58:50;7.40;99.90
39019;DHT22;24786;51.984;5.872;2023-12-20T09:01:15;7.40;99.90
39019;DHT22;24786;51.984;5.872;2023-12-20T09:03:41;7.50;99.90
39019;DHT22;24786;51.984;5.872;2023-12-20T09:06:09;7.40;99.90
39019;DHT22;24786;51.984;5.872;2023-12-20T09:08:38;7.50;99.90
39019;DHT22;24786;51.984;5.872;2023-12-20T09:11:03;7.40;99.90
39019;DHT22;24786;51.984;5.872;2023-12-20T09:13:29;7.40;99.90
39019;DHT22;24786;51.984;5.872;2023-12-20T09:15:55;7.50;99.90
39019;DHT22;24786;51.984;5.872;2023-12-20T09:18:20;7.50;99.90
39019;DHT22;24786;51.984;5.872;2023-12-20T09:20:46;7.40;99.90
39019;DHT22;24786;51.984;5.872;2023-12-20T09:23:14;7.50;99.90
39019;DHT22;24786;51.984;5.872;2023-12-20T09:25:39;7.40;99.90
39019;DHT22;24786;51.984;5.872;2023-12-20T09:28:05;7.40;99.90
39019;DHT22;24786;51.984;5.872;2023-12-20T09:30:31;7.40;99.90
39019;DHT22;24786;51.984;5.872;2023-12-20T09:32:57;7.40;99.90
39019;DHT22;24786;51.984;5.872;2023-12-20T09:35:25;7.40;99.90
39019;DHT22;24786;51.984;5.872;2023-12-20T09:37:51;7.40;99.90
39019;DHT22;24786;51.984;5.872;2023-12-20T09:40:19;7.30;99.90
39019;DHT22;24786;51.984;5.872;2023-12-20T09:42:50;7.30;99.90
39019;DHT22;24786;51.984;5.872;2023-12-20T09:45:21;7.30;99.90
39019;DHT22;24786;51.984;5.872;2023-12-20T09:47:48;7.30;99.90
39019;DHT22;24786;51.984;5.872;2023-12-20T09:50:14;7.30;99.90
39019;DHT22;24786;51.984;5.872;2023-12-20T09:52:39;7.30;99.90
39019;DHT22;24786;51.984;5.872;2023-12-20T09:55:05;7.30;99.90
39019;DHT22;24786;51.984;5.872;2023-12-20T09:57:32;7.30;99.90
39019;DHT22;24786;51.984;5.872;2023-12-20T10:00:00;7.30;99.90
39019;DHT22;24786;51.984;5.872;2023-12-20T10:02:26;7.30;99.90
39019;DHT22;24786;51.984;5.872;2023-12-20T10:04:53;7.30;99.90
39019;DHT22;24786;51.984;5.872;2023-12-20T10:07:19;7.30;99.90
39019;DHT22;24786;51.984;5.872;2023-12-20T10:09:47;7.30;99.90
39019;DHT22;24786;51.984;5.872;2023-12-20T10:12:12;7.30;99.90
39019;DHT22;24786;51.984;5.872;2023-12-20T10:14:38;7.40;99.90
39019;DHT22;24786;51.984;5.872;2023-12-20T10:17:12;7.40;99.90
39019;DHT22;24786;51.984;5.872;2023-12-20T10:19:42;7.40;99.90
39019;DHT22;24786;51.984;5.872;2023-12-20T10:22:08;7.40;99.90
39019;DHT22;24786;51.984;5.872;2023-12-20T10:24:33;7.40;99.90
39019;DHT22;24786;51.984;5.872;2023-12-20T10:29:58;7.50;99.90
39019;DHT22;24786;51.984;5.872;2023-12-20T10:32:24;7.50;99.90
39019;DHT22;24786;51.984;5.872;2023-12-20T10:34:50;7.50;99.90
39019;DHT22;24786;51.984;5.872;2023-12-20T10:37:16;7.60;99.90
39019;DHT22;24786;51.984;5.872;2023-12-20T10:39:47;7.60;99.90
39019;DHT22;24786;51.984;5.872;2023-12-20T10:42:19;7.70;99.90
39019;DHT22;24786;51.984;5.872;2023-12-20T10:44:46;7.70;99.90
39019;DHT22;24786;51.984;5.872;2023-12-20T10:47:12;7.70;99.90
39019;DHT22;24786;51.984;5.872;2023-12-20T10:49:38;7.70;99.90
39019;DHT22;24786;51.984;5.872;2023-12-20T10:52:04;7.70;99.90
39019;DHT22;24786;51.984;5.872;2023-12-20T10:54:30;7.70;99.90
39019;DHT22;24786;51.984;5.872;2023-12-20T10:56:57;7.70;99.90
39019;DHT22;24786;51.984;5.872;2023-12-20T10:59:47;7.70;99.90
39019;DHT22;24786;51.984;5.872;2023-12-20T11:02:14;7.70;99.90
39019;DHT22;24786;51.984;5.872;2023-12-20T11:04:47;7.80;99.90
39019;DHT22;24786;51.984;5.872;2023-12-20T11:07:35;7.80;99.90
39019;DHT22;24786;51.984;5.872;2023-12-20T11:10:10;7.80;99.90
39019;DHT22;24786;51.984;5.872;2023-12-20T11:12:41;7.80;99.90
39019;DHT22;24786;51.984;5.872;2023-12-20T11:15:09;7.90;99.90
39019;DHT22;24786;51.984;5.872;2023-12-20T11:17:35;7.90;99.90
39019;DHT22;24786;51.984;5.872;2023-12-20T11:22:27;7.90;99.90
39019;DHT22;24786;51.984;5.872;2023-12-20T11:25:03;7.90;99.90
39019;DHT22;24786;51.984;5.872;2023-12-20T11:27:30;7.90;99.90
39019;DHT22;24786;51.984;5.872;2023-12-20T11:29:56;7.90;99.90
39019;DHT22;24786;51.984;5.872;2023-12-20T11:34:51;8.00;99.90
39019;DHT22;24786;51.984;5.872;2023-12-20T11:37:16;8.00;99.90
39019;DHT22;24786;51.984;5.872;2023-12-20T11:39:44;8.10;99.90
39019;DHT22;24786;51.984;5.872;2023-12-20T11:42:10;8.10;99.90
39019;DHT22;24786;51.984;5.872;2023-12-20T11:44:38;8.10;99.90
39019;DHT22;24786;51.984;5.872;2023-12-20T11:47:09;8.20;99.90
39019;DHT22;24786;51.984;5.872;2023-12-20T11:49:47;8.20;99.90
39019;DHT22;24786;51.984;5.872;2023-12-20T11:52:16;8.20;99.90
39019;DHT22;24786;51.984;5.872;2023-12-20T11:54:53;8.30;99.90
39019;DHT22;24786;51.984;5.872;2023-12-20T11:57:19;8.40;99.90
39019;DHT22;24786;51.984;5.872;2023-12-20T11:59:47;8.40;99.90
39019;DHT22;24786;51.984;5.872;2023-12-20T12:02:22;8.40;99.90
39019;DHT22;24786;51.984;5.872;2023-12-20T12:04:49;8.40;99.90
39019;DHT22;24786;51.984;5.872;2023-12-20T12:07:19;8.40;99.90
39019;DHT22;24786;51.984;5.872;2023-12-20T12:09:45;8.40;99.90
39019;DHT22;24786;51.984;5.872;2023-12-20T12:12:11;8.40;99.90
39019;DHT22;24786;51.984;5.872;2023-12-20T12:14:49;8.50;99.90
39019;DHT22;24786;51.984;5.872;2023-12-20T12:17:15;8.50;99.90
39019;DHT22;24786;51.984;5.872;2023-12-20T12:19:43;8.50;99.90
39019;DHT22;24786;51.984;5.872;2023-12-20T12:22:09;8.50;99.90
39019;DHT22;24786;51.984;5.872;2023-12-20T12:24:39;8.50;99.90
39019;DHT22;24786;51.984;5.872;2023-12-20T12:27:08;8.60;99.90
39019;DHT22;24786;51.984;5.872;2023-12-20T12:29:36;8.60;99.90
39019;DHT22;24786;51.984;5.872;2023-12-20T12:32:05;8.70;99.90
39019;DHT22;24786;51.984;5.872;2023-12-20T12:34:32;8.70;99.90
39019;DHT22;24786;51.984;5.872;2023-12-20T12:36:57;8.70;99.90
39019;DHT22;24786;51.984;5.872;2023-12-20T12:39:25;8.70;99.90
39019;DHT22;24786;51.984;5.872;2023-12-20T12:41:51;8.80;99.90
39019;DHT22;24786;51.984;5.872;2023-12-20T12:44:17;8.80;99.90
39019;DHT22;24786;51.984;5.872;2023-12-20T12:46:45;8.80;99.90
39019;DHT22;24786;51.984;5.872;2023-12-20T12:49:11;8.80;99.90
39019;DHT22;24786;51.984;5.872;2023-12-20T12:51:37;8.70;99.90
39019;DHT22;24786;51.984;5.872;2023-12-20T12:54:02;8.70;99.90
39019;DHT22;24786;51.984;5.872;2023-12-20T12:56:28;8.70;99.90
39019;DHT22;24786;51.984;5.872;2023-12-20T12:58:54;8.70;99.90
39019;DHT22;24786;51.984;5.872;2023-12-20T13:01:20;8.70;99.90
39019;DHT22;24786;51.984;5.872;2023-12-20T13:03:45;8.60;99.90
39019;DHT22;24786;51.984;5.872;2023-12-20T13:06:11;8.70;99.90
39019;DHT22;24786;51.984;5.872;2023-12-20T13:08:36;8.70;99.90
39019;DHT22;24786;51.984;5.872;2023-12-20T13:11:02;8.70;99.90
39019;DHT22;24786;51.984;5.872;2023-12-20T13:13:29;8.70;99.90
39019;DHT22;24786;51.984;5.872;2023-12-20T13:15:55;8.80;99.90
39019;DHT22;24786;51.984;5.872;2023-12-20T13:18:21;8.80;99.90
39019;DHT22;24786;51.984;5.872;2023-12-20T13:20:47;8.80;99.90
39019;DHT22;24786;51.984;5.872;2023-12-20T13:23:12;8.80;99.90
39019;DHT22;24786;51.984;5.872;2023-12-20T13:25:39;8.80;99.90
39019;DHT22;24786;51.984;5.872;2023-12-20T13:28:04;8.90;99.90
39019;DHT22;24786;51.984;5.872;2023-12-20T13:30:30;8.90;99.90
39019;DHT22;24786;51.984;5.872;2023-12-20T13:32:55;8.80;99.90
39019;DHT22;24786;51.984;5.872;2023-12-20T13:35:21;8.80;99.90
39019;DHT22;24786;51.984;5.872;2023-12-20T13:37:46;9.00;99.90
39019;DHT22;24786;51.984;5.872;2023-12-20T13:40:12;8.90;99.90
39019;DHT22;24786;51.984;5.872;2023-12-20T13:42:38;8.80;99.90
39019;DHT22;24786;51.984;5.872;2023-12-20T13:45:03;8.80;99.90
39019;DHT22;24786;51.984;5.872;2023-12-20T13:47:30;8.80;99.90
39019;DHT22;24786;51.984;5.872;2023-12-20T13:49:56;8.90;99.90
39019;DHT22;24786;51.984;5.872;2023-12-20T13:52:21;8.80;99.90
39019;DHT22;24786;51.984;5.872;2023-12-20T13:54:47;8.80;99.90
39019;DHT22;24786;51.984;5.872;2023-12-20T13:57:13;8.80;99.90
39019;DHT22;24786;51.984;5.872;2023-12-20T13:59:38;8.80;99.90
39019;DHT22;24786;51.984;5.872;2023-12-20T14:02:04;8.80;99.90
39019;DHT22;24786;51.984;5.872;2023-12-20T14:04:29;8.80;99.90
39019;DHT22;24786;51.984;5.872;2023-12-20T14:06:55;8.90;99.90
39019;DHT22;24786;51.984;5.872;2023-12-20T14:09:20;8.90;99.90
39019;DHT22;24786;51.984;5.872;2023-12-20T14:11:46;8.80;99.90
39019;DHT22;24786;51.984;5.872;2023-12-20T14:14:14;8.80;99.90
39019;DHT22;24786;51.984;5.872;2023-12-20T14:16:40;8.90;99.90
39019;DHT22;24786;51.984;5.872;2023-12-20T14:19:10;8.90;99.90
39019;DHT22;24786;51.984;5.872;2023-12-20T14:21:36;8.80;99.90
39019;DHT22;24786;51.984;5.872;2023-12-20T14:24:01;8.90;99.90
39019;DHT22;24786;51.984;5.872;2023-12-20T14:26:30;8.80;99.90
39019;DHT22;24786;51.984;5.872;2023-12-20T14:28:59;8.90;99.90
39019;DHT22;24786;51.984;5.872;2023-12-20T14:31:24;8.80;99.90
39019;DHT22;24786;51.984;5.872;2023-12-20T14:33:50;8.90;99.90
39019;DHT22;24786;51.984;5.872;2023-12-20T14:36:18;8.90;99.90
39019;DHT22;24786;51.984;5.872;2023-12-20T14:38:44;8.90;99.90
39019;DHT22;24786;51.984;5.872;2023-12-20T14:41:09;8.80;99.90
39019;DHT22;24786;51.984;5.872;2023-12-20T14:43:35;8.80;99.90
39019;DHT22;24786;51.984;5.872;2023-12-20T14:46:12;8.80;99.90
39019;DHT22;24786;51.984;5.872;2023-12-20T14:48:38;8.80;99.90
39019;DHT22;24786;51.984;5.872;2023-12-20T14:51:03;8.90;99.90
39019;DHT22;24786;51.984;5.872;2023-12-20T14:53:29;8.90;99.90
39019;DHT22;24786;51.984;5.872;2023-12-20T14:55:54;8.90;99.90
39019;DHT22;24786;51.984;5.872;2023-12-20T14:58:20;8.90;99.90
39019;DHT22;24786;51.984;5.872;2023-12-20T15:00:48;8.90;99.90
39019;DHT22;24786;51.984;5.872;2023-12-20T15:03:14;8.90;99.90
39019;DHT22;24786;51.984;5.872;2023-12-20T15:05:41;8.90;99.90
39019;DHT22;24786;51.984;5.872;2023-12-20T15:08:07;8.80;99.90
39019;DHT22;24786;51.984;5.872;2023-12-20T15:10:36;8.80;99.90
39019;DHT22;24786;51.984;5.872;2023-12-20T15:13:01;8.80;99.90
39019;DHT22;24786;51.984;5.872;2023-12-20T15:15:27;8.80;99.90
39019;DHT22;24786;51.984;5.872;2023-12-20T15:17:55;8.80;99.90
39019;DHT22;24786;51.984;5.872;2023-12-20T15:20:23;8.80;99.90
39019;DHT22;24786;51.984;5.872;2023-12-20T15:22:49;8.90;99.90
39019;DHT22;24786;51.984;5.872;2023-12-20T15:25:14;8.90;99.90
39019;DHT22;24786;51.984;5.872;2023-12-20T15:27:47;8.80;99.90
39019;DHT22;24786;51.984;5.872;2023-12-20T15:30:14;8.70;99.90
39019;DHT22;24786;51.984;5.872;2023-12-20T15:32:40;8.80;99.90
39019;DHT22;24786;51.984;5.872;2023-12-20T15:35:05;8.70;99.90
39019;DHT22;24786;51.984;5.872;2023-12-20T15:37:31;8.70;99.90
39019;DHT22;24786;51.984;5.872;2023-12-20T15:40:00;8.70;99.90
39019;DHT22;24786;51.984;5.872;2023-12-20T15:42:28;8.70;99.90
39019;DHT22;24786;51.984;5.872;2023-12-20T15:44:56;8.70;99.90
39019;DHT22;24786;51.984;5.872;2023-12-20T15:47:21;8.70;99.90
39019;DHT22;24786;51.984;5.872;2023-12-20T15:49:47;8.60;99.90
39019;DHT22;24786;51.984;5.872;2023-12-20T15:52:14;8.60;99.90
39019;DHT22;24786;51.984;5.872;2023-12-20T15:54:40;8.60;99.90
39019;DHT22;24786;51.984;5.872;2023-12-20T15:57:06;8.50;99.90
39019;DHT22;24786;51.984;5.872;2023-12-20T15:59:32;8.60;99.90
39019;DHT22;24786;51.984;5.872;2023-12-20T16:02:01;8.50;99.90
39019;DHT22;24786;51.984;5.872;2023-12-20T16:04:26;8.50;99.90
39019;DHT22;24786;51.984;5.872;2023-12-20T16:06:52;8.50;99.90
39019;DHT22;24786;51.984;5.872;2023-12-20T16:09:17;8.50;99.90
39019;DHT22;24786;51.984;5.872;2023-12-20T16:11:43;8.50;99.90
39019;DHT22;24786;51.984;5.872;2023-12-20T16:14:09;8.50;99.90
39019;DHT22;24786;51.984;5.872;2023-12-20T16:16:38;8.40;99.90
39019;DHT22;24786;51.984;5.872;2023-12-20T16:19:04;8.30;99.90
39019;DHT22;24786;51.984;5.872;2023-12-20T16:21:29;8.40;99.90
39019;DHT22;24786;51.984;5.872;2023-12-20T16:23:55;8.30;99.90
39019;DHT22;24786;51.984;5.872;2023-12-20T16:26:20;8.30;99.90
39019;DHT22;24786;51.984;5.872;2023-12-20T16:28:46;8.30;99.90
39019;DHT22;24786;51.984;5.872;2023-12-20T16:31:12;8.30;99.90
39019;DHT22;24786;51.984;5.872;2023-12-20T16:33:38;8.30;99.90
39019;DHT22;24786;51.984;5.872;2023-12-20T16:36:03;8.30;99.90